Time;durP1;ratioP1;P1;durP2;ratioP2;P2;SDS_P1;SDS_P2;PMS_P1;PMS_P2;Temp;Humidity;BMP_temperature;BMP_pressure;BME280_temperature;BME280_humidity;BME280_pressure;Samples;Min_cycle;Max_cycle;Signal;HPM_P1;HPM_P2
2021/01/08 00:00:33;;;;;;;;;;;;;;;19.70;43.60;100869.16;5076194;28;1020;-53
2021/01/08 00:02:58;;;;;;;;;;;;;;;19.77;43.59;100864.13;5076876;28;795;-46
2021/01/08 00:05:24;;;;;;;;;;;;;;;19.79;43.48;100861.91;5076419;28;786;-53
2021/01/08 00:07:49;;;;;;;;;;;;;;;20.61;41.65;100865.56;5062260;28;1012;-48
2021/01/08 00:10:14;;;;;;;;;;;;;;;20.59;41.38;100868.63;5056534;28;855;-46
2021/01/08 00:12:40;;;;;;;;;;;;;;;20.31;42.25;100862.13;5056653;28;771;-48
2021/01/08 00:15:08;;;;;;;;;;;;;;;20.18;42.39;100870.00;5055916;28;1979;-47
2021/01/08 00:17:34;;;;;;;;;;;;;;;19.75;43.72;100869.94;5056439;28;815;-51
2021/01/08 00:19:59;;;;;;;;;;;;;;;19.66;43.88;100866.19;5056406;28;827;-51
2021/01/08 00:22:25;;;;;;;;;;;;;;;20.49;41.98;100864.06;5055763;28;1021;-48
2021/01/08 00:24:51;;;;;;;;;;;;;;;20.72;41.21;100861.56;5056309;28;811;-51
2021/01/08 00:27:16;;;;;;;;;;;;;;;20.33;42.46;100865.41;5056604;28;747;-46
2021/01/08 00:29:42;;;;;;;;;;;;;;;20.21;42.40;100851.22;5056154;28;807;-51
2021/01/08 00:32:13;;;;;;;;;;;;;;;19.79;43.31;100857.22;5056263;28;736;-46
2021/01/08 00:34:39;;;;;;;;;;;;;;;19.44;44.49;100861.97;5054838;28;1918;-52
2021/01/08 00:37:04;;;;;;;;;;;;;;;20.12;42.83;100870.38;5055500;28;1005;-46
2021/01/08 00:39:30;;;;;;;;;;;;;;;20.87;41.24;100882.59;5056136;28;803;-51
2021/01/08 00:41:55;;;;;;;;;;;;;;;20.37;42.25;100890.47;5056153;28;870;-51
2021/01/08 00:44:21;;;;;;;;;;;;;;;20.35;42.18;100888.00;5055683;28;760;-52
2021/01/08 00:46:47;;;;;;;;;;;;;;;19.93;43.32;100892.41;5056426;28;859;-46
2021/01/08 00:49:13;;;;;;;;;;;;;;;19.57;43.93;100890.81;5054938;28;1453;-48
2021/01/08 00:51:39;;;;;;;;;;;;;;;20.22;42.72;100891.53;5055428;28;958;-47
2021/01/08 00:54:05;;;;;;;;;;;;;;;20.80;41.15;100885.78;5071765;28;1977;-49
2021/01/08 00:56:30;;;;;;;;;;;;;;;20.54;41.83;100881.69;5070873;28;1135;-48
2021/01/08 00:59:03;;;;;;;;;;;;;;;20.40;42.17;100882.44;5074466;28;1307;-46
2021/01/08 01:01:29;;;;;;;;;;;;;;;19.95;43.29;100879.13;5076251;28;1043;-49
2021/01/08 01:03:54;;;;;;;;;;;;;;;19.63;44.00;100878.63;5076075;28;760;-48
2021/01/08 01:06:26;;;;;;;;;;;;;;;19.46;44.55;100875.47;5074855;28;945;-51
2021/01/08 01:08:52;;;;;;;;;;;;;;;19.73;43.58;100865.84;5055934;28;871;-53
2021/01/08 01:11:17;;;;;;;;;;;;;;;19.78;43.41;100861.09;5055631;28;767;-47
2021/01/08 01:13:43;;;;;;;;;;;;;;;19.71;43.69;100855.06;5055668;28;1910;-49
2021/01/08 01:16:09;;;;;;;;;;;;;;;19.97;43.32;100854.81;5055734;28;771;-47
2021/01/08 01:18:35;;;;;;;;;;;;;;;20.80;41.35;100860.91;5057845;28;759;-47
2021/01/08 01:21:00;;;;;;;;;;;;;;;20.50;41.84;100851.91;5060221;28;757;-50
2021/01/08 01:23:26;;;;;;;;;;;;;;;20.32;42.32;100847.19;5059146;28;950;-47
2021/01/08 01:25:51;;;;;;;;;;;;;;;20.00;42.72;100829.38;5059269;28;798;-50
2021/01/08 01:28:16;;;;;;;;;;;;;;;19.50;44.19;100818.63;5059507;28;850;-47
2021/01/08 01:30:42;;;;;;;;;;;;;;;20.46;42.19;100828.75;5059307;28;767;-53
2021/01/08 01:33:07;;;;;;;;;;;;;;;20.72;41.37;100822.03;5059220;28;752;-47
2021/01/08 01:35:33;;;;;;;;;;;;;;;20.50;42.06;100821.50;5059389;28;1973;-47
2021/01/08 01:37:58;;;;;;;;;;;;;;;20.32;42.32;100814.06;5073657;28;981;-52
2021/01/08 01:40:23;;;;;;;;;;;;;;;19.92;43.23;100816.25;5079206;28;775;-46
2021/01/08 01:42:49;;;;;;;;;;;;;;;19.73;44.01;100830.78;5079771;28;767;-46
2021/01/08 01:45:24;;;;;;;;;;;;;;;20.67;41.67;100821.00;5079022;28;771;-50
2021/01/08 01:47:50;;;;;;;;;;;;;;;20.62;41.59;100818.31;5079427;28;800;-52
2021/01/08 01:50:15;;;;;;;;;;;;;;;20.39;42.30;100820.03;5079117;28;790;-50
2021/01/08 01:52:41;;;;;;;;;;;;;;;20.13;42.64;100819.56;5065043;28;959;-46
2021/01/08 01:55:07;;;;;;;;;;;;;;;19.89;43.32;100811.31;5062577;28;1914;-45
2021/01/08 01:57:32;;;;;;;;;;;;;;;19.69;43.87;100807.66;5079246;28;751;-52
2021/01/08 01:59:57;;;;;;;;;;;;;;;20.55;41.77;100794.94;5078482;28;815;-48
2021/01/08 02:02:42;;;;;;;;;;;;;;;20.60;41.48;100790.16;5078756;28;1217;-49
2021/01/08 02:05:07;;;;;;;;;;;;;;;20.42;42.06;100775.22;5078922;28;787;-46
2021/01/08 02:07:33;;;;;;;;;;;;;;;20.10;42.58;100775.97;5066943;28;1094;-48
2021/01/08 02:09:59;;;;;;;;;;;;;;;19.77;43.42;100773.91;5057556;28;752;-46
2021/01/08 02:12:24;;;;;;;;;;;;;;;20.11;42.85;100766.59;5057480;28;788;-48
2021/01/08 02:14:49;;;;;;;;;;;;;;;20.84;41.19;100764.38;5056919;28;1918;-48
2021/01/08 02:17:15;;;;;;;;;;;;;;;20.51;41.88;100773.44;5058539;28;811;-47
2021/01/08 02:19:45;;;;;;;;;;;;;;;20.40;42.33;100776.66;5057721;28;780;-50
2021/01/08 02:22:29;;;;;;;;;;;;;;;19.86;43.27;100778.81;5058081;28;1101;-52
2021/01/08 02:25:04;;;;;;;;;;;;;;;19.33;44.04;100761.19;5057276;28;799;-47
2021/01/08 02:27:29;;;;;;;;;;;;;;;20.40;42.30;100758.16;5058614;28;768;-47
2021/01/08 02:29:55;;;;;;;;;;;;;;;20.61;41.60;100752.31;5056814;28;846;-47
2021/01/08 02:32:20;;;;;;;;;;;;;;;20.46;41.89;100759.69;5058314;28;772;-45
2021/01/08 02:34:46;;;;;;;;;;;;;;;20.24;42.52;100752.03;5058019;28;1918;-46
2021/01/08 02:37:11;;;;;;;;;;;;;;;19.72;43.70;100762.91;5056519;28;939;-46
2021/01/08 02:39:37;;;;;;;;;;;;;;;19.56;44.02;100766.97;5057343;28;811;-46
2021/01/08 02:42:02;;;;;;;;;;;;;;;20.43;42.33;100767.78;5058257;28;767;-46
2021/01/08 02:44:27;;;;;;;;;;;;;;;20.88;40.94;100778.41;5056896;28;831;-46
2021/01/08 02:46:53;;;;;;;;;;;;;;;20.51;41.84;100767.91;5058064;28;886;-50
2021/01/08 02:49:18;;;;;;;;;;;;;;;20.26;42.59;100766.38;5058073;28;860;-47
2021/01/08 02:51:44;;;;;;;;;;;;;;;19.75;43.55;100762.31;5057826;28;934;-47
2021/01/08 02:54:09;;;;;;;;;;;;;;;20.07;43.13;100763.59;5057825;28;1976;-50
2021/01/08 02:56:35;;;;;;;;;;;;;;;20.91;41.23;100758.47;5073251;28;1210;-52
2021/01/08 02:59:01;;;;;;;;;;;;;;;20.42;42.06;100763.38;5076742;28;740;-53
2021/01/08 03:01:27;;;;;;;;;;;;;;;20.45;42.00;100757.25;5077619;28;1067;-51
2021/01/08 03:03:52;;;;;;;;;;;;;;;20.18;42.43;100762.31;5076396;28;759;-52
2021/01/08 03:06:17;;;;;;;;;;;;;;;19.46;44.29;100759.66;5076300;28;981;-47
2021/01/08 03:08:43;;;;;;;;;;;;;;;20.07;42.99;100748.97;5057627;28;803;-47
2021/01/08 03:11:09;;;;;;;;;;;;;;;20.87;41.32;100749.94;5056153;28;744;-47
2021/01/08 03:13:34;;;;;;;;;;;;;;;20.41;42.16;100757.03;5057317;28;739;-46
2021/01/08 03:16:00;;;;;;;;;;;;;;;20.46;42.07;100745.09;5056131;28;1974;-46
2021/01/08 03:18:25;;;;;;;;;;;;;;;19.87;43.38;100763.91;5057287;28;854;-45
2021/01/08 03:20:50;;;;;;;;;;;;;;;19.66;43.98;100764.13;5057196;28;759;-52
2021/01/08 03:23:16;;;;;;;;;;;;;;;19.65;44.03;100752.25;5057186;28;954;-45
2021/01/08 03:25:41;;;;;;;;;;;;;;;19.86;43.34;100754.78;5057402;28;902;-44
2021/01/08 03:28:07;;;;;;;;;;;;;;;19.71;43.60;100750.25;5057065;28;807;-51
2021/01/08 03:30:32;;;;;;;;;;;;;;;19.58;44.08;100745.47;5057406;28;823;-49
2021/01/08 03:32:58;;;;;;;;;;;;;;;20.45;42.29;100743.44;5057427;28;735;-46
2021/01/08 03:35:23;;;;;;;;;;;;;;;20.65;41.71;100745.03;5056892;28;1905;-48
2021/01/08 03:37:48;;;;;;;;;;;;;;;20.39;42.08;100750.97;5056632;28;922;-48
2021/01/08 03:40:14;;;;;;;;;;;;;;;20.21;42.38;100738.00;5056644;28;827;-51
2021/01/08 03:42:39;;;;;;;;;;;;;;;19.75;43.44;100747.72;5056821;28;823;-49
2021/01/08 03:45:05;;;;;;;;;;;;;;;19.38;44.37;100741.00;5056723;28;839;-47
2021/01/08 03:47:30;;;;;;;;;;;;;;;20.33;42.45;100741.16;5056912;28;751;-49
2021/01/08 03:49:56;;;;;;;;;;;;;;;20.81;41.08;100729.88;5056744;28;831;-49
2021/01/08 03:52:21;;;;;;;;;;;;;;;20.45;41.87;100719.38;5056423;28;970;-53
2021/01/08 03:54:47;;;;;;;;;;;;;;;20.25;42.39;100719.72;5057457;28;1910;-46
2021/01/08 03:57:12;;;;;;;;;;;;;;;19.73;43.44;100703.88;5076823;28;874;-47
2021/01/08 03:59:37;;;;;;;;;;;;;;;19.88;43.48;100713.09;5076530;28;955;-49
2021/01/08 04:02:03;;;;;;;;;;;;;;;20.70;41.43;100706.31;5057914;28;1115;-51
2021/01/08 04:04:28;;;;;;;;;;;;;;;20.62;41.47;100713.31;5071136;28;811;-46
2021/01/08 04:06:54;;;;;;;;;;;;;;;20.40;42.10;100711.19;5055450;28;978;-48
2021/01/08 04:09:19;;;;;;;;;;;;;;;20.08;42.59;100704.50;5055784;28;776;-51
2021/01/08 04:11:45;;;;;;;;;;;;;;;19.90;43.05;100717.19;5055504;28;767;-52
2021/01/08 04:14:11;;;;;;;;;;;;;;;20.32;42.35;100714.66;5055491;28;1910;-57
2021/01/08 04:16:36;;;;;;;;;;;;;;;20.96;40.88;100711.38;5055678;28;835;-52
2021/01/08 04:19:02;;;;;;;;;;;;;;;20.52;41.77;100719.00;5055409;28;811;-54
2021/01/08 04:21:27;;;;;;;;;;;;;;;20.38;42.19;100721.72;5055265;28;922;-47
2021/01/08 04:23:53;;;;;;;;;;;;;;;20.06;43.05;100723.28;5055605;28;831;-55
2021/01/08 04:26:18;;;;;;;;;;;;;;;19.67;44.07;100730.72;5055149;28;771;-47
2021/01/08 04:28:44;;;;;;;;;;;;;;;20.32;42.48;100726.50;5055530;28;744;-55
2021/01/08 04:31:09;;;;;;;;;;;;;;;20.93;40.94;100723.03;5055483;28;819;-48
2021/01/08 04:33:35;;;;;;;;;;;;;;;20.48;41.85;100716.03;5055139;28;839;-50
2021/01/08 04:36:00;;;;;;;;;;;;;;;20.41;42.00;100717.53;5055541;28;1921;-54
2021/01/08 04:38:25;;;;;;;;;;;;;;;19.80;43.45;100712.63;5055197;28;989;-48
2021/01/08 04:40:51;;;;;;;;;;;;;;;19.45;44.32;100703.69;5055463;28;795;-51
2021/01/08 04:43:16;;;;;;;;;;;;;;;20.37;42.23;100703.53;5054037;28;763;-54
2021/01/08 04:45:42;;;;;;;;;;;;;;;20.76;41.25;100696.81;5055290;28;779;-47
2021/01/08 04:48:07;;;;;;;;;;;;;;;20.52;41.89;100697.75;5055284;28;801;-46
2021/01/08 04:50:33;;;;;;;;;;;;;;;20.32;42.07;100698.06;5055175;28;810;-51
2021/01/08 04:52:58;;;;;;;;;;;;;;;19.73;43.36;100695.59;5055029;28;983;-55
2021/01/08 04:55:24;;;;;;;;;;;;;;;19.66;43.89;100695.97;5063063;28;1981;-55
2021/01/08 04:57:50;;;;;;;;;;;;;;;20.73;41.63;100686.34;5077375;28;858;-54
2021/01/08 05:00:16;;;;;;;;;;;;;;;20.73;41.23;100689.09;5051962;28;761957;-55
2021/01/08 05:02:41;;;;;;;;;;;;;;;20.54;41.88;100682.78;5080867;28;793;-54
2021/01/08 05:05:07;;;;;;;;;;;;;;;20.28;42.15;100689.56;5078911;28;759;-49
2021/01/08 05:07:32;;;;;;;;;;;;;;;19.77;43.44;100677.34;5068423;28;1033;-49
2021/01/08 05:10:01;;;;;;;;;;;;;;;19.60;44.09;100683.38;5077443;28;844;-48
2021/01/08 05:12:42;;;;;;;;;;;;;;;20.61;41.86;100674.97;5079352;28;880;-47
2021/01/08 05:15:08;;;;;;;;;;;;;;;20.52;41.74;100674.81;5079468;28;1906;-46
2021/01/08 05:17:34;;;;;;;;;;;;;;;20.43;42.12;100677.44;5080434;28;736;-49
2021/01/08 05:19:59;;;;;;;;;;;;;;;20.19;42.44;100683.09;5078394;28;895;-48
2021/01/08 05:22:25;;;;;;;;;;;;;;;19.69;43.54;100669.72;5078218;28;954;-47
2021/01/08 05:24:50;;;;;;;;;;;;;;;20.26;42.39;100678.00;5078620;28;831;-53
2021/01/08 05:27:16;;;;;;;;;;;;;;;21.01;40.70;100673.41;5079391;28;841;-52
2021/01/08 05:29:41;;;;;;;;;;;;;;;20.63;41.64;100664.41;5078108;28;1310;-54
2021/01/08 05:32:07;;;;;;;;;;;;;;;20.51;42.02;100660.19;5076996;28;1090;-51
2021/01/08 05:34:32;;;;;;;;;;;;;;;19.96;42.82;100659.97;5078020;28;1906;-49
2021/01/08 05:36:57;;;;;;;;;;;;;;;19.92;43.60;100656.19;5072782;28;949;-48
2021/01/08 05:39:23;;;;;;;;;;;;;;;20.74;41.25;100649.31;5059788;28;819;-54
2021/01/08 05:41:48;;;;;;;;;;;;;;;20.63;41.47;100648.63;5059183;28;839;-53
2021/01/08 05:44:14;;;;;;;;;;;;;;;20.47;41.97;100633.50;5059298;28;775;-52
2021/01/08 05:46:39;;;;;;;;;;;;;;;20.29;42.24;100633.22;5059497;28;740;-51
2021/01/08 05:49:05;;;;;;;;;;;;;;;19.67;43.80;100633.34;5058061;28;744;-51
2021/01/08 05:51:31;;;;;;;;;;;;;;;20.17;42.75;100630.13;5063840;28;875;-51
2021/01/08 05:53:58;;;;;;;;;;;;;;;21.01;40.99;100628.34;5078195;28;1965;-53
2021/01/08 05:56:23;;;;;;;;;;;;;;;20.59;41.59;100624.69;5084492;28;1161;-53
2021/01/08 05:58:49;;;;;;;;;;;;;;;20.59;41.60;100624.69;5077927;28;779;-52
2021/01/08 06:01:14;;;;;;;;;;;;;;;20.05;42.89;100627.00;5078574;28;1013;-49
2021/01/08 06:03:40;;;;;;;;;;;;;;;19.78;43.27;100621.03;5078139;28;735;-51
2021/01/08 06:06:06;;;;;;;;;;;;;;;20.12;43.10;100619.19;5078326;28;843;-54
2021/01/08 06:08:31;;;;;;;;;;;;;;;20.95;41.00;100630.38;5059226;28;1020;-54
2021/01/08 06:10:57;;;;;;;;;;;;;;;20.57;41.81;100624.19;5058756;28;782;-50
2021/01/08 06:13:24;;;;;;;;;;;;;;;20.41;42.22;100618.94;5059111;28;870;-46
2021/01/08 06:15:51;;;;;;;;;;;;;;;19.82;43.12;100613.84;5059066;28;1992;-54
2021/01/08 06:18:16;;;;;;;;;;;;;;;19.60;43.77;100617.16;5057191;28;740;-46
2021/01/08 06:20:41;;;;;;;;;;;;;;;20.16;42.68;100618.25;5057409;28;808;-52
2021/01/08 06:23:07;;;;;;;;;;;;;;;20.89;40.91;100616.97;5061568;28;944;-51
2021/01/08 06:25:32;;;;;;;;;;;;;;;20.52;41.91;100614.03;5078625;28;822;-50
2021/01/08 06:27:58;;;;;;;;;;;;;;;20.46;42.01;100604.22;5078602;28;740;-46
2021/01/08 06:30:26;;;;;;;;;;;;;;;19.97;42.81;100618.28;5077042;28;1159;-45
2021/01/08 06:32:57;;;;;;;;;;;;;;;19.76;43.55;100617.75;5077062;28;818;-46
2021/01/08 06:35:22;;;;;;;;;;;;;;;20.71;41.31;100618.72;5076961;28;1910;-47
2021/01/08 06:37:47;;;;;;;;;;;;;;;21.24;40.09;100604.38;5076756;28;1025;-50
2021/01/08 06:40:13;;;;;;;;;;;;;;;21.42;39.67;100607.28;5076995;28;787;-45
2021/01/08 06:42:41;;;;;;;;;;;;;;;20.95;41.00;100604.69;5077940;28;807;-44
2021/01/08 06:45:07;;;;;;;;;;;;;;;20.61;41.56;100594.84;5077991;28;790;-52
2021/01/08 06:47:33;;;;;;;;;;;;;;;20.04;42.69;100595.81;5076711;28;1326;-44
2021/01/08 06:49:58;;;;;;;;;;;;;;;19.63;43.50;100600.03;5076961;28;756;-45
2021/01/08 06:52:24;;;;;;;;;;;;;;;20.39;42.39;100585.28;5066657;28;915;-54
2021/01/08 06:54:53;;;;;;;;;;;;;;;21.07;40.54;100591.19;5059704;28;1914;-50
2021/01/08 06:57:19;;;;;;;;;;;;;;;20.67;41.42;100593.59;5078005;28;811;-44
2021/01/08 06:59:58;;;;;;;;;;;;;;;20.54;41.76;100583.34;5077910;28;751;-45
2021/01/08 07:02:25;;;;;;;;;;;;;;;19.99;42.83;100576.56;5076504;28;1142;-53
2021/01/08 07:04:50;;;;;;;;;;;;;;;19.90;43.20;100592.19;5076325;28;811;-50
2021/01/08 07:07:22;;;;;;;;;;;;;;;20.92;41.03;100591.50;5076065;28;912;-55
2021/01/08 07:09:48;;;;;;;;;;;;;;;20.70;41.48;100581.16;5077787;28;799;-51
2021/01/08 07:12:13;;;;;;;;;;;;;;;20.67;41.29;100596.38;5077767;28;804;-51
2021/01/08 07:14:39;;;;;;;;;;;;;;;20.16;42.54;100590.66;5077743;28;1974;-51
2021/01/08 07:17:05;;;;;;;;;;;;;;;19.74;43.40;100581.38;5077212;28;815;-46
2021/01/08 07:19:30;;;;;;;;;;;;;;;19.78;43.53;100587.94;5077436;28;799;-48
2021/01/08 07:21:58;;;;;;;;;;;;;;;20.79;41.11;100584.81;5071320;28;899;-50
2021/01/08 07:24:24;;;;;;;;;;;;;;;20.56;41.57;100592.16;5057544;28;740;-52
2021/01/08 07:26:50;;;;;;;;;;;;;;;20.49;42.03;100587.84;5059169;28;858;-47
2021/01/08 07:29:15;;;;;;;;;;;;;;;20.04;42.82;100595.81;5077749;28;759;-45
2021/01/08 07:31:41;;;;;;;;;;;;;;;19.64;43.55;100609.94;5076044;28;1365;-49
2021/01/08 07:34:08;;;;;;;;;;;;;;;20.25;42.61;100595.50;5077155;28;1968;-46
2021/01/08 07:36:33;;;;;;;;;;;;;;;21.06;40.55;100597.84;5073948;28;942;-46
2021/01/08 07:38:59;;;;;;;;;;;;;;;20.52;41.76;100595.53;5056979;28;811;-53
2021/01/08 07:41:33;;;;;;;;;;;;;;;20.42;41.95;100581.91;5057110;28;862;-45
2021/01/08 07:43:59;;;;;;;;;;;;;;;19.97;42.65;100576.06;5057081;28;795;-56
2021/01/08 07:46:27;;;;;;;;;;;;;;;19.85;43.25;100576.53;5056624;28;830;-50
2021/01/08 07:48:53;;;;;;;;;;;;;;;20.66;41.34;100583.66;5057159;28;776;-51
2021/01/08 07:51:18;;;;;;;;;;;;;;;20.77;41.12;100582.38;5055538;28;1001;-51
2021/01/08 07:53:53;;;;;;;;;;;;;;;20.62;41.33;100583.47;5056410;28;848;-58
2021/01/08 07:56:25;;;;;;;;;;;;;;;20.12;42.50;100573.06;5070133;28;1988;-50
2021/01/08 07:58:58;;;;;;;;;;;;;;;19.48;44.00;100570.72;5076618;28;879;-51
2021/01/08 08:01:23;;;;;;;;;;;;;;;20.27;42.56;100551.81;5076360;28;1026;-48
2021/01/08 08:03:56;;;;;;;;;;;;;;;20.97;40.85;100553.53;5076940;28;783;-52
2021/01/08 08:06:21;;;;;;;;;;;;;;;20.50;41.79;100548.06;5074975;28;942;-50
2021/01/08 08:08:47;;;;;;;;;;;;;;;20.43;41.81;100544.88;5055137;28;796;-49
2021/01/08 08:11:13;;;;;;;;;;;;;;;19.94;42.72;100554.59;5055810;28;764;-50
2021/01/08 08:13:38;;;;;;;;;;;;;;;19.50;43.92;100545.59;5055699;28;856;-47
2021/01/08 08:16:04;;;;;;;;;;;;;;;20.57;41.60;100533.84;5056722;28;1914;-51
2021/01/08 08:18:30;;;;;;;;;;;;;;;20.77;41.09;100527.09;5056617;28;800;-48
2021/01/08 08:21:10;;;;;;;;;;;;;;;20.52;41.68;100517.38;5057125;28;733;-48
2021/01/08 08:23:36;;;;;;;;;;;;;;;20.32;42.14;100524.91;5060804;28;806;-50
2021/01/08 08:26:02;;;;;;;;;;;;;;;19.82;43.24;100514.50;5056559;28;720;-48
2021/01/08 08:28:28;;;;;;;;;;;;;;;19.73;43.58;100513.53;5063872;28;1162;-48
2021/01/08 08:30:53;;;;;;;;;;;;;;;20.80;41.16;100487.81;5075375;28;875;-52
2021/01/08 08:33:22;;;;;;;;;;;;;;;20.73;40.91;100492.94;5076314;28;812;-49
2021/01/08 08:35:48;;;;;;;;;;;;;;;20.50;41.55;100487.28;5076088;28;1917;-49
2021/01/08 08:38:13;;;;;;;;;;;;;;;20.21;42.22;100476.53;5059268;28;1009;-49
2021/01/08 08:40:39;;;;;;;;;;;;;;;19.61;43.44;100491.09;5056280;28;778;-58
2021/01/08 08:43:04;;;;;;;;;;;;;;;19.84;43.33;100497.66;5056116;28;795;-50
2021/01/08 08:45:33;;;;;;;;;;;;;;;20.87;41.00;100481.06;5056009;28;803;-50
2021/01/08 08:48:05;;;;;;;;;;;;;;;20.75;41.01;100476.88;5056348;28;787;-53
2021/01/08 08:50:30;;;;;;;;;;;;;;;20.55;41.55;100474.50;5055777;28;788;-46
2021/01/08 08:52:56;;;;;;;;;;;;;;;20.36;42.06;100469.91;5055803;28;955;-55
2021/01/08 08:55:31;;;;;;;;;;;;;;;19.60;43.42;100468.22;5061488;28;1955;-55
2021/01/08 08:58:10;;;;;;;;;;;;;;;20.05;42.76;100462.22;5076063;28;831;-51
2021/01/08 09:00:35;;;;;;;;;;;;;;;20.98;40.67;100460.34;5075928;28;1024;-51
2021/01/08 09:03:04;;;;;;;;;;;;;;;20.47;41.55;100452.00;5075472;28;883;-55
2021/01/08 09:05:32;;;;;;;;;;;;;;;20.46;41.75;100444.84;5074942;28;1729;-50
2021/01/08 09:08:16;;;;;;;;;;;;;;;20.06;42.41;100441.75;5061182;28;1005;-53
2021/01/08 09:10:47;;;;;;;;;;;;;;;19.72;43.57;100437.41;5055779;28;808;-55
2021/01/08 09:13:13;;;;;;;;;;;;;;;20.49;41.79;100433.16;5056122;28;835;-57
2021/01/08 09:16:08;;;;;;;;;;;;;;;20.84;40.88;100430.78;5055981;28;1918;-53
2021/01/08 09:18:36;;;;;;;;;;;;;;;20.46;41.65;100422.75;5046720;28;1261;-50
2021/01/08 09:21:22;;;;;;;;;;;;;;;20.15;42.20;100417.06;5055967;28;756;-53
2021/01/08 09:23:47;;;;;;;;;;;;;;;19.65;43.35;100410.19;5055801;28;1694;-53
2021/01/08 09:26:13;;;;;;;;;;;;;;;20.16;42.66;100399.34;5054955;28;805;-54
2021/01/08 09:28:50;;;;;;;;;;;;;;;20.99;40.56;100387.34;5056160;28;768;-50
2021/01/08 09:31:16;;;;;;;;;;;;;;;20.58;41.22;100380.81;5055919;28;824;-51
2021/01/08 09:33:47;;;;;;;;;;;;;;;20.48;41.33;100368.03;5055335;28;835;-52
2021/01/08 09:36:12;;;;;;;;;;;;;;;20.03;42.48;100359.59;5067018;28;1913;-54
2021/01/08 09:38:38;;;;;;;;;;;;;;;19.92;42.93;100353.47;5054947;28;816;-55
2021/01/08 09:41:04;;;;;;;;;;;;;;;20.94;40.87;100352.34;5058469;28;795;-54
2021/01/08 09:43:29;;;;;;;;;;;;;;;20.71;40.97;100339.66;5059551;28;764;-52
2021/01/08 09:46:02;;;;;;;;;;;;;;;20.63;41.32;100339.22;5059012;28;827;-55
2021/01/08 09:48:27;;;;;;;;;;;;;;;20.25;42.18;100327.69;5059294;28;828;-56
2021/01/08 09:50:59;;;;;;;;;;;;;;;19.81;43.08;100330.78;5059485;28;779;-57
2021/01/08 09:53:25;;;;;;;;;;;;;;;19.63;43.62;100326.16;5081112;28;962;-57
2021/01/08 09:55:50;;;;;;;;;;;;;;;20.60;41.65;100314.19;5089798;28;2000;-52
2021/01/08 09:58:16;;;;;;;;;;;;;;;20.89;40.63;100318.50;5079194;28;827;-49
2021/01/08 10:00:41;;;;;;;;;;;;;;;20.59;41.47;100305.06;5078731;28;1235;-55
2021/01/08 10:03:16;;;;;;;;;;;;;;;20.43;41.79;100303.81;5079201;28;815;-56
2021/01/08 10:05:42;;;;;;;;;;;;;;;19.82;42.92;100302.06;5079185;28;795;-49
2021/01/08 10:08:16;;;;;;;;;;;;;;;19.78;43.34;100286.38;5074619;28;942;-55
2021/01/08 10:10:42;;;;;;;;;;;;;;;20.83;40.94;100274.41;5079054;28;824;-44
2021/01/08 10:13:13;;;;;;;;;;;;;;;20.59;41.42;100273.88;5078801;28;735;-55
2021/01/08 10:15:46;;;;;;;;;;;;;;;20.59;41.31;100271.91;5078974;28;1917;-54
2021/01/08 10:18:11;;;;;;;;;;;;;;;20.26;41.95;100268.56;5079024;28;732;-58
2021/01/08 10:20:44;;;;;;;;;;;;;;;19.85;42.85;100263.94;5078872;28;799;-58
2021/01/08 10:23:10;;;;;;;;;;;;;;;19.70;43.58;100257.59;5061859;28;993;-49
2021/01/08 10:25:35;;;;;;;;;;;;;;;20.73;41.00;100255.31;5058751;28;748;-54
2021/01/08 10:28:11;;;;;;;;;;;;;;;20.64;41.31;100246.94;5058873;28;788;-57
2021/01/08 10:30:36;;;;;;;;;;;;;;;20.44;41.47;100247.44;5058692;28;803;-56
2021/01/08 10:33:02;;;;;;;;;;;;;;;20.20;42.07;100233.91;5058602;28;763;-57
2021/01/08 10:35:27;;;;;;;;;;;;;;;19.67;43.15;100252.69;5058370;28;1914;-50
2021/01/08 10:37:52;;;;;;;;;;;;;;;20.12;42.45;100244.56;5058549;28;954;-57
2021/01/08 10:40:18;;;;;;;;;;;;;;;20.98;40.53;100237.28;5071849;28;888;-54
2021/01/08 10:42:43;;;;;;;;;;;;;;;20.61;41.33;100222.72;5078602;28;791;-52
2021/01/08 10:45:09;;;;;;;;;;;;;;;20.47;41.59;100211.72;5078204;28;806;-52
2021/01/08 10:47:34;;;;;;;;;;;;;;;19.97;42.54;100201.56;5077967;28;764;-51
2021/01/08 10:50:01;;;;;;;;;;;;;;;19.67;43.57;100192.81;5077235;28;815;-52
2021/01/08 10:52:26;;;;;;;;;;;;;;;20.69;41.54;100193.53;5067360;28;962;-50
2021/01/08 10:54:51;;;;;;;;;;;;;;;20.68;41.36;100192.72;5059340;28;1922;-48
2021/01/08 10:57:17;;;;;;;;;;;;;;;20.46;41.86;100182.47;5078123;28;847;-51
2021/01/08 10:59:43;;;;;;;;;;;;;;;20.32;42.12;100184.50;5077924;28;798;-48
2021/01/08 11:02:09;;;;;;;;;;;;;;;19.75;43.24;100183.00;5077780;28;1205;-52
2021/01/08 11:04:35;;;;;;;;;;;;;;;20.03;42.81;100194.00;5076650;28;843;-53
2021/01/08 11:07:00;;;;;;;;;;;;;;;20.88;41.09;100187.81;5070868;28;978;-52
2021/01/08 11:09:26;;;;;;;;;;;;;;;20.61;41.59;100180.47;5057770;28;811;-48
2021/01/08 11:11:51;;;;;;;;;;;;;;;20.46;41.71;100176.94;5075254;28;943;-52
2021/01/08 11:14:17;;;;;;;;;;;;;;;20.04;42.66;100190.09;5098392;28;1913;-50
2021/01/08 11:16:42;;;;;;;;;;;;;;;19.70;43.46;100188.63;5097944;28;759;-53
2021/01/08 11:19:07;;;;;;;;;;;;;;;20.26;42.54;100188.50;5098248;28;767;-49
2021/01/08 11:21:33;;;;;;;;;;;;;;;20.91;40.77;100164.25;5091366;28;938;-49
2021/01/08 11:23:58;;;;;;;;;;;;;;;20.63;41.44;100165.19;5056439;28;808;-53
2021/01/08 11:26:24;;;;;;;;;;;;;;;20.53;41.65;100171.00;5057773;28;791;-52
2021/01/08 11:28:50;;;;;;;;;;;;;;;20.09;42.55;100164.31;5057378;28;551;-48
2021/01/08 11:31:15;;;;;;;;;;;;;;;19.70;43.08;100166.56;5057321;28;875;-50
2021/01/08 11:33:40;;;;;;;;;;;;;;;20.62;41.56;100165.50;5057365;28;815;-49
2021/01/08 11:36:06;;;;;;;;;;;;;;;20.72;41.14;100157.00;5057200;28;1971;-50
2021/01/08 11:38:31;;;;;;;;;;;;;;;20.58;41.68;100136.88;5076096;28;958;-51
2021/01/08 11:40:57;;;;;;;;;;;;;;;20.42;41.87;100144.78;5077797;28;839;-51
2021/01/08 11:43:22;;;;;;;;;;;;;;;19.80;43.01;100137.97;5076613;28;863;-52
2021/01/08 11:45:48;;;;;;;;;;;;;;;20.01;42.97;100135.53;5076949;28;783;-54
2021/01/08 11:48:13;;;;;;;;;;;;;;;20.98;40.67;100123.94;5077157;28;570;-50
2021/01/08 11:50:38;;;;;;;;;;;;;;;20.65;41.23;100109.63;5076905;28;805;-49
2021/01/08 11:53:04;;;;;;;;;;;;;;;20.69;41.26;100113.41;5061380;28;949;-51
2021/01/08 11:55:29;;;;;;;;;;;;;;;20.21;42.22;100111.34;5063500;28;1976;-51
2021/01/08 11:57:55;;;;;;;;;;;;;;;19.85;43.00;100113.00;5076994;28;744;-58
2021/01/08 12:00:20;;;;;;;;;;;;;;;19.99;43.06;100094.47;5076436;28;1093;-57
2021/01/08 12:02:46;;;;;;;;;;;;;;;21.00;40.65;100087.72;5076734;28;523;-50
2021/01/08 12:05:11;;;;;;;;;;;;;;;20.75;41.13;100087.28;5076701;28;502;-52
2021/01/08 12:07:37;;;;;;;;;;;;;;;20.51;41.50;100077.41;5064908;28;953;-50
2021/01/08 12:10:02;;;;;;;;;;;;;;;20.02;42.73;100079.22;5056750;28;783;-50
2021/01/08 12:12:28;;;;;;;;;;;;;;;19.67;43.42;100088.00;5056548;28;808;-49
2021/01/08 12:14:53;;;;;;;;;;;;;;;20.11;42.87;100085.59;5058060;28;1934;-51
2021/01/08 12:17:19;;;;;;;;;;;;;;;20.96;41.09;100076.47;5076675;28;838;-52
2021/01/08 12:19:44;;;;;;;;;;;;;;;20.69;41.36;100074.75;5077051;28;858;-52
2021/01/08 12:22:10;;;;;;;;;;;;;;;20.65;41.54;100070.94;5068257;28;926;-53
2021/01/08 12:24:37;;;;;;;;;;;;;;;20.18;42.47;100069.41;5056561;28;786;-50
2021/01/08 12:27:02;;;;;;;;;;;;;;;20.01;42.88;100061.03;5056673;28;866;-50
2021/01/08 12:29:29;;;;;;;;;;;;;;;19.81;43.35;100049.38;5056250;28;855;-50
2021/01/08 12:31:59;;;;;;;;;;;;;;;20.05;42.84;100041.88;5056440;28;810;-52
2021/01/08 12:34:24;;;;;;;;;;;;;;;20.17;42.69;100054.00;5056504;28;1910;-55
2021/01/08 12:36:49;;;;;;;;;;;;;;;19.98;43.13;100054.19;5055973;28;1061;-49
2021/01/08 12:39:15;;;;;;;;;;;;;;;19.80;43.27;100047.75;5056491;28;751;-52
2021/01/08 12:41:40;;;;;;;;;;;;;;;19.66;43.57;100060.75;5056457;28;783;-48
2021/01/08 12:44:06;;;;;;;;;;;;;;;19.83;43.46;100062.84;5056072;28;804;-50
2021/01/08 12:46:31;;;;;;;;;;;;;;;19.87;43.25;100063.06;5056273;28;818;-52
2021/01/08 12:48:57;;;;;;;;;;;;;;;19.98;42.91;100068.00;5074908;28;840;-51
2021/01/08 12:51:22;;;;;;;;;;;;;;;20.12;42.71;100067.13;5074773;28;910;-51